Carlsbad, California
Current Conditions -  °F | °C
As of 3:52 PM on Wednesday 26 Nov 2014 (Local Time) from KOKB Reporting Station
Clear Clear  
Wind Chill: 75°   Ceiling: Unl
Heat Index: 75°   Visibility: 10mi
Dew Point: 48°   Wind: 5mph
Humidity: 38%   Direction: 230°SW
Pressure: 30.1"   Gusts: NA
Location:  33.17°N, 117.33°W
Report Text: KOKB 262352Z AUTO 23004KT 10SM CLR 24/09 A3010 RMK AO2 SLP193 T02390089 10278 20222 56009
Loading
Personal Weather Stations






























Interactive Weather Map New forecast layout! Learn more

10-Day Weather Forecast

Advertisements
Track Severe Weather on mobile